createdAt,value
2023-02-16T00:00:01.840Z,3.92
2023-02-16T00:01:02.657Z,2.08
2023-02-16T00:02:01.808Z,3.52
2023-02-16T00:03:03.995Z,5.12
2023-02-16T00:04:01.723Z,2.48
2023-02-16T00:05:02.200Z,3.44
2023-02-16T00:06:02.654Z,4.24
2023-02-16T00:07:01.403Z,3.28
2023-02-16T00:08:01.912Z,3.36
2023-02-16T00:09:03.075Z,3.6
2023-02-16T00:10:01.873Z,2.08
2023-02-16T00:12:03.481Z,3.6
2023-02-16T00:13:03.947Z,2.88
2023-02-16T00:14:01.738Z,3.36
2023-02-16T00:15:03.902Z,2.32
2023-02-16T00:16:01.777Z,3.2
2023-02-16T00:17:02.112Z,2.32
2023-02-16T00:18:01.637Z,2.32
2023-02-16T00:19:02.121Z,2.24
2023-02-16T00:20:03.246Z,2.48
2023-02-16T00:21:02.494Z,2.24
2023-02-16T00:22:01.579Z,2.72
2023-02-16T00:23:02.040Z,3.2
2023-02-16T00:24:03.154Z,2.72
2023-02-16T00:25:01.950Z,1.2
2023-02-16T00:26:01.484Z,1.6
2023-02-16T00:27:03.621Z,2.8
2023-02-16T00:28:03.071Z,3.6
2023-02-16T00:29:01.900Z,1.36
2023-02-16T00:30:01.362Z,2.56
2023-02-16T00:31:02.301Z,2.48
2023-02-16T00:32:01.532Z,4.24
2023-02-16T00:33:01.781Z,2.64
2023-02-16T00:34:02.286Z,2.4
2023-02-16T00:35:01.797Z,3.04
2023-02-16T00:36:02.273Z,2.88
2023-02-16T00:37:01.715Z,1.84
2023-02-16T00:38:03.882Z,3.44
2023-02-16T00:39:01.658Z,3.44
2023-02-16T00:40:03.793Z,3.52
2023-02-16T00:41:02.089Z,3.36
2023-02-16T00:42:02.216Z,3.12
2023-02-16T00:43:01.565Z,3.04
2023-02-16T00:44:02.077Z,2.88
2023-02-16T00:45:01.561Z,1.84
2023-02-16T00:46:02.107Z,3.36
2023-02-16T00:47:01.481Z,1.12
2023-02-16T00:48:01.957Z,1.52
2023-02-16T00:49:03.184Z,2.4
2023-02-16T00:50:03.629Z,2.08
2023-02-16T00:51:01.785Z,2.16
2023-02-16T00:52:01.879Z,1.92
2023-02-16T00:53:01.437Z,2.16
2023-02-16T00:54:03.553Z,1.28
2023-02-16T00:55:03.000Z,2.4
2023-02-16T00:56:01.811Z,1.36
2023-02-16T00:57:02.310Z,2.48
2023-02-16T00:58:03.513Z,0.4
2023-02-16T00:59:03.952Z,3.04
2023-02-16T01:00:01.724Z,2.72
2023-02-16T01:01:02.628Z,1.44
2023-02-16T01:02:03.499Z,1.84
2023-02-16T01:03:02.203Z,1.44
2023-02-16T01:04:01.654Z,1.92
2023-02-16T01:05:02.126Z,1.36
2023-02-16T01:06:03.226Z,1.44
2023-02-16T01:07:02.203Z,1.2
2023-02-16T01:08:01.644Z,0.8
2023-02-16T01:09:02.128Z,0.88
2023-02-16T01:10:01.637Z,0.4
2023-02-16T01:11:02.524Z,0
2023-02-16T01:12:01.563Z,0.88
2023-02-16T01:13:02.052Z,0
2023-02-16T01:14:01.476Z,0.64
2023-02-16T01:15:02.035Z,0
2023-02-16T01:16:01.597Z,0
2023-02-16T01:17:01.953Z,0.8
2023-02-16T01:18:01.494Z,0
2023-02-16T01:19:01.957Z,0
2023-02-16T01:20:01.397Z,0
2023-02-16T01:21:02.183Z,0.64
2023-02-16T01:22:01.321Z,0.48
2023-02-16T01:23:01.827Z,0.8
2023-02-16T01:25:03.468Z,1.84
2023-02-16T01:26:02.275Z,0.8
2023-02-16T01:27:03.392Z,1.12
2023-02-16T01:28:02.216Z,1.52
2023-02-16T01:29:01.729Z,1.76
2023-02-16T01:30:03.906Z,3.04
2023-02-16T01:31:02.100Z,1.84
2023-02-16T01:32:04.060Z,2.72
2023-02-16T01:33:01.577Z,1.84
2023-02-16T01:34:02.044Z,1.52
2023-02-16T01:35:01.564Z,1.92
2023-02-16T01:36:02.043Z,1.28
2023-02-16T01:37:01.552Z,1.36
2023-02-16T01:38:02.057Z,1.52
2023-02-16T01:39:01.509Z,2.08
2023-02-16T01:40:03.627Z,1.76
2023-02-16T01:41:02.008Z,1.76
2023-02-16T01:42:01.962Z,1.52
2023-02-16T01:43:01.406Z,2.4
2023-02-16T01:44:03.586Z,2.88
2023-02-16T01:45:03.002Z,2.88
2023-02-16T01:46:01.804Z,1.6
2023-02-16T01:47:02.283Z,2.24
2023-02-16T01:48:03.485Z,2
2023-02-16T01:49:02.281Z,2.16
2023-02-16T01:50:03.369Z,2.16
2023-02-16T01:51:02.603Z,2
2023-02-16T01:52:01.722Z,3.44
2023-02-16T01:53:02.209Z,3.6
2023-02-16T01:54:01.667Z,2.16
2023-02-16T01:55:03.833Z,2.96
2023-02-16T01:56:01.570Z,2
2023-02-16T01:57:02.136Z,2.8
2023-02-16T01:58:01.570Z,1.84
2023-02-16T01:59:02.053Z,2.72
2023-02-16T02:00:01.562Z,3.04
2023-02-16T02:01:02.289Z,4.24
2023-02-16T02:02:01.593Z,2
2023-02-16T02:03:01.998Z,2.8
2023-02-16T02:04:01.512Z,1.2
2023-02-16T02:05:01.958Z,3.2
2023-02-16T02:06:01.420Z,2.96
2023-02-16T02:07:02.210Z,2.48
2023-02-16T02:08:01.719Z,3.6
2023-02-16T02:09:03.879Z,3.36
2023-02-16T02:10:03.345Z,3.6
2023-02-16T02:11:04.148Z,3.76
2023-02-16T02:12:01.567Z,2.96
2023-02-16T02:13:03.718Z,2.16
2023-02-16T02:14:01.555Z,1.84
2023-02-16T02:15:02.060Z,2.56
2023-02-16T02:16:01.512Z,3.76
2023-02-16T02:17:01.966Z,3.52
2023-02-16T02:18:01.399Z,2.64
2023-02-16T02:19:01.878Z,3.2
2023-02-16T02:20:01.438Z,3.68
2023-02-16T02:21:02.311Z,2.4
2023-02-16T02:22:01.318Z,2.16
2023-02-16T02:23:01.801Z,2.32
2023-02-16T02:24:02.277Z,2.24
2023-02-16T02:25:01.812Z,2.48
2023-02-16T02:26:02.280Z,4.08
2023-02-16T02:27:01.718Z,2.48
2023-02-16T02:28:02.200Z,1.92
2023-02-16T02:29:01.730Z,2.64
2023-02-16T02:30:02.242Z,2.64
2023-02-16T02:31:01.750Z,2.24
2023-02-16T02:32:02.150Z,2.56
2023-02-16T02:33:01.655Z,2.8
2023-02-16T02:34:02.132Z,2.56
2023-02-16T02:35:01.566Z,2.4
2023-02-16T02:36:02.039Z,3.36
2023-02-16T02:37:01.556Z,2.16
2023-02-16T02:38:02.029Z,2.8
2023-02-16T02:39:01.510Z,2.4
2023-02-16T02:40:01.984Z,2.16
2023-02-16T02:41:01.625Z,1.6
2023-02-16T02:42:03.635Z,1.6
2023-02-16T02:43:01.409Z,2.4
2023-02-16T02:44:03.556Z,2
2023-02-16T02:45:01.415Z,2.56
2023-02-16T02:46:01.872Z,2.64
2023-02-16T02:47:01.321Z,1.84
2023-02-16T02:48:01.829Z,2.88
2023-02-16T02:49:01.321Z,1.84
2023-02-16T02:50:01.840Z,1.52
2023-02-16T02:51:02.550Z,1.92
2023-02-16T02:52:01.764Z,2.88
2023-02-16T02:53:02.193Z,2.24
2023-02-16T02:54:01.727Z,2.16
2023-02-16T02:55:02.239Z,1.92
2023-02-16T02:56:01.738Z,2.32
2023-02-16T02:57:02.220Z,1.52
2023-02-16T02:58:01.631Z,2.08
2023-02-16T02:59:02.120Z,1.68
2023-02-16T03:00:03.336Z,1.52
2023-02-16T03:01:02.567Z,2
2023-02-16T03:02:01.612Z,1.68
2023-02-16T03:03:02.039Z,2
2023-02-16T03:04:03.178Z,1.04
2023-02-16T03:05:03.720Z,1.28
2023-02-16T03:06:02.425Z,1.84
2023-02-16T03:07:02.195Z,1.52
2023-02-16T03:08:01.638Z,0.8
2023-02-16T03:09:02.120Z,1.04
2023-02-16T03:10:03.336Z,2.16
2023-02-16T03:11:04.094Z,1.12
2023-02-16T03:12:01.556Z,1.28
2023-02-16T03:13:02.041Z,1.76
2023-02-16T03:14:03.156Z,1.84
2023-02-16T03:15:01.973Z,1.12
2023-02-16T03:16:01.567Z,2.8
2023-02-16T03:17:01.957Z,0.88
2023-02-16T03:18:01.400Z,1.44
2023-02-16T03:19:01.875Z,1.28
2023-02-16T03:20:03.065Z,1.76
2023-02-16T03:21:03.816Z,0.72
2023-02-16T03:22:01.319Z,0.8
2023-02-16T03:23:01.814Z,0.64
2023-02-16T03:24:02.272Z,0.72
2023-02-16T03:25:01.820Z,1.04
2023-02-16T03:26:02.279Z,0.88
2023-02-16T03:27:01.722Z,1.04
2023-02-16T03:28:03.872Z,1.04
2023-02-16T03:29:01.728Z,0.88
2023-02-16T03:30:02.319Z,1.36
2023-02-16T03:31:01.975Z,1.44
2023-02-16T03:32:02.207Z,1.92
2023-02-16T03:33:01.552Z,1.2
2023-02-16T03:34:02.030Z,0.4
2023-02-16T03:35:01.559Z,1.28
2023-02-16T03:36:03.712Z,0.96
2023-02-16T03:37:01.468Z,0.72
2023-02-16T03:38:02.031Z,0.56
2023-02-16T03:39:03.155Z,2.16
2023-02-16T03:40:03.631Z,2.4
2023-02-16T03:41:01.593Z,1.12
2023-02-16T03:42:01.889Z,2
2023-02-16T03:43:01.399Z,1.36
2023-02-16T03:44:01.869Z,2.08
2023-02-16T03:45:01.312Z,2.08
2023-02-16T03:46:01.861Z,3.2
2023-02-16T03:47:01.332Z,2.88
2023-02-16T03:48:01.794Z,2.24
2023-02-16T03:49:02.288Z,1.52
2023-02-16T03:50:01.811Z,1.6
2023-02-16T03:51:02.493Z,2.32
2023-02-16T03:52:01.736Z,2.32
2023-02-16T03:53:02.224Z,2
2023-02-16T03:54:03.318Z,3.2
2023-02-16T03:55:02.197Z,2.4
2023-02-16T03:56:01.649Z,3.52
2023-02-16T03:57:02.135Z,2.4
2023-02-16T03:58:01.601Z,2.48
2023-02-16T03:59:03.808Z,2.64
2023-02-16T04:00:03.238Z,2.16
2023-02-16T04:01:02.571Z,2.72
2023-02-16T04:02:01.548Z,1.92
2023-02-16T04:03:03.666Z,1.44
2023-02-16T04:04:01.533Z,1.84
2023-02-16T04:05:01.980Z,1.36
2023-02-16T04:06:01.426Z,3.04
2023-02-16T04:07:01.984Z,2.56
2023-02-16T04:08:01.410Z,1.68
2023-02-16T04:09:01.939Z,3.44
2023-02-16T04:10:01.408Z,1.6
2023-02-16T04:11:03.789Z,3.52
2023-02-16T04:13:03.491Z,2.48
2023-02-16T04:14:03.988Z,2.72
2023-02-16T04:15:01.818Z,2.4
2023-02-16T04:16:02.295Z,2.72
2023-02-16T04:17:01.728Z,2.64
2023-02-16T04:18:02.208Z,2.56
2023-02-16T04:19:01.658Z,2.64
2023-02-16T04:20:02.170Z,3.36
2023-02-16T04:21:03.678Z,3.6
2023-02-16T04:22:03.816Z,2.72
2023-02-16T04:23:01.578Z,2.16
2023-02-16T04:24:03.733Z,2.24
2023-02-16T04:25:01.620Z,2.4
2023-02-16T04:26:01.972Z,2.64
2023-02-16T04:27:01.490Z,2.16
2023-02-16T04:28:01.989Z,1.76
2023-02-16T04:29:01.410Z,2.4
2023-02-16T04:30:02.010Z,1.92
2023-02-16T04:31:01.788Z,1.84
2023-02-16T04:32:03.678Z,1.6
2023-02-16T04:33:03.041Z,2.32
2023-02-16T04:34:03.490Z,2.32
2023-02-16T04:35:02.322Z,1.52
2023-02-16T04:36:01.809Z,2.96
2023-02-16T04:37:02.326Z,1.68
2023-02-16T04:38:01.742Z,1.44
2023-02-16T04:39:03.983Z,1.92
2023-02-16T04:40:03.414Z,2.64
2023-02-16T04:41:02.713Z,1.52
2023-02-16T04:42:01.661Z,3.36
2023-02-16T04:43:02.136Z,1.28
2023-02-16T04:44:01.659Z,1.76
2023-02-16T04:45:03.860Z,3.04
2023-02-16T04:46:03.315Z,2.32
2023-02-16T04:47:02.043Z,2
2023-02-16T04:48:03.255Z,2.16
2023-02-16T04:49:03.735Z,1.84
2023-02-16T04:50:03.188Z,3.36
2023-02-16T04:51:02.453Z,2
2023-02-16T04:52:01.498Z,2.08
2023-02-16T04:53:03.649Z,1.92
2023-02-16T04:54:01.408Z,1.04
2023-02-16T04:55:01.984Z,2.72
2023-02-16T04:56:01.421Z,2.8
2023-02-16T04:57:01.930Z,2.96
2023-02-16T04:58:01.321Z,3.28
2023-02-16T04:59:01.804Z,2.32
2023-02-16T05:00:02.294Z,3.44
2023-02-16T05:01:02.114Z,2.96
2023-02-16T05:02:02.302Z,2.32
2023-02-16T05:03:01.824Z,1.52
2023-02-16T05:04:02.282Z,3.2
2023-02-16T05:05:01.720Z,2.4
2023-02-16T05:06:02.192Z,2.4
2023-02-16T05:07:01.791Z,2.64
2023-02-16T05:08:03.886Z,2.08
2023-02-16T05:09:01.714Z,2.48
2023-02-16T05:10:02.198Z,1.36
2023-02-16T05:11:03.576Z,1.76
2023-02-16T05:12:02.118Z,2.32
2023-02-16T05:13:01.630Z,2.16
2023-02-16T05:14:02.134Z,1.92
2023-02-16T05:15:01.554Z,2
2023-02-16T05:16:02.127Z,1.68
2023-02-16T05:17:01.562Z,1.6
2023-02-16T05:18:02.833Z,1.76
2023-02-16T05:19:01.489Z,1.84
2023-02-16T05:20:02.005Z,2.4
2023-02-16T05:21:01.661Z,2.64
2023-02-16T05:22:01.869Z,2
2023-02-16T05:23:01.407Z,1.6
2023-02-16T05:24:01.893Z,0.72
2023-02-16T05:25:01.309Z,1.6
2023-02-16T05:26:01.799Z,1.84
2023-02-16T05:27:03.953Z,1.92
2023-02-16T05:28:01.796Z,2.4
2023-02-16T05:29:02.188Z,1.6
2023-02-16T05:30:01.749Z,1.28
2023-02-16T05:31:02.687Z,3.28
2023-02-16T05:32:04.478Z,2.32
2023-02-16T05:33:02.116Z,2.48
2023-02-16T05:34:01.626Z,2
2023-02-16T05:35:02.120Z,3.04
2023-02-16T05:36:01.553Z,2.72
2023-02-16T05:37:02.038Z,1.36
2023-02-16T05:38:01.550Z,2.24
2023-02-16T05:39:02.031Z,2.08
2023-02-16T05:40:01.476Z,2.94
2023-02-16T05:41:03.934Z,2.96
2023-02-16T05:42:01.476Z,2.8
2023-02-16T05:43:01.947Z,2.48
2023-02-16T05:44:01.417Z,3.6
2023-02-16T05:45:01.886Z,3.44
2023-02-16T05:46:01.360Z,1.92
2023-02-16T05:47:01.820Z,2.72
2023-02-16T05:48:01.313Z,3.92
2023-02-16T05:49:01.796Z,2.56
2023-02-16T05:50:02.347Z,3.92
2023-02-16T05:51:02.388Z,1.28
2023-02-16T05:52:03.987Z,1.84
2023-02-16T05:53:01.714Z,2
2023-02-16T05:54:02.214Z,3.68
2023-02-16T05:55:01.637Z,2.56
2023-02-16T05:56:02.115Z,2.56
2023-02-16T05:57:03.316Z,1.28
2023-02-16T05:58:02.134Z,2.24
2023-02-16T05:59:03.229Z,1.36
2023-02-16T06:00:02.041Z,2.24
2023-02-16T06:01:03.444Z,2.64
2023-02-16T06:02:01.966Z,1.28
2023-02-16T06:03:03.163Z,1.84
2023-02-16T06:04:02.041Z,1.2
2023-02-16T06:05:01.403Z,2.8
2023-02-16T06:06:01.878Z,2.32
2023-02-16T06:07:01.429Z,1.28
2023-02-16T06:08:03.558Z,1.2
2023-02-16T06:09:01.318Z,0.88
2023-02-16T06:10:01.788Z,2.24
2023-02-16T06:11:02.650Z,1.92
2023-02-16T06:12:03.500Z,1.28
2023-02-16T06:13:02.197Z,1.76
2023-02-16T06:14:01.720Z,1.28
2023-02-16T06:15:02.199Z,0.8
2023-02-16T06:16:01.684Z,1.12
2023-02-16T06:17:02.136Z,0.4
2023-02-16T06:18:01.656Z,0
2023-02-16T06:19:02.143Z,0.32
2023-02-16T06:20:01.554Z,0
2023-02-16T06:21:02.239Z,0.64
2023-02-16T06:22:01.563Z,0.8
2023-02-16T06:23:02.069Z,0.8
2023-02-16T06:24:01.500Z,1.76
2023-02-16T06:25:01.983Z,1.12
2023-02-16T06:26:01.479Z,0.56
2023-02-16T06:27:01.968Z,0.48
2023-02-16T06:28:01.429Z,1.52
2023-02-16T06:29:01.886Z,0.8
2023-02-16T06:30:01.425Z,1.6
2023-02-16T06:31:03.906Z,2.32
2023-02-16T06:32:03.143Z,1.84
2023-02-16T06:33:01.807Z,1.6
2023-02-16T06:34:02.297Z,0.96
2023-02-16T06:35:01.750Z,1.2
2023-02-16T06:36:02.213Z,1.04
2023-02-16T06:37:01.718Z,1.76
2023-02-16T06:38:02.202Z,2.32
2023-02-16T06:39:03.342Z,2.96
2023-02-16T06:40:02.145Z,2.16
2023-02-16T06:41:01.832Z,1.36
2023-02-16T06:42:02.117Z,1.12
2023-02-16T06:43:01.553Z,0.8
2023-02-16T06:44:02.048Z,0.8
2023-02-16T06:45:01.591Z,1.04
2023-02-16T06:46:02.053Z,0.96
2023-02-16T06:47:01.537Z,0.72
2023-02-16T06:48:03.641Z,0.24
2023-02-16T06:49:01.482Z,0.08
2023-02-16T06:50:01.975Z,1.2
2023-02-16T06:51:01.430Z,0.64
2023-02-16T06:52:01.913Z,1.76
2023-02-16T06:53:01.403Z,0.88
2023-02-16T06:54:01.873Z,1.36
2023-02-16T06:55:03.011Z,1.36
2023-02-16T06:56:01.799Z,1.2
2023-02-16T06:58:03.485Z,0.96
2023-02-16T06:59:02.282Z,1.04
2023-02-16T07:00:01.704Z,0
2023-02-16T07:01:02.495Z,0.48
2023-02-16T07:02:01.812Z,1.12
2023-02-16T07:03:02.288Z,0.96
2023-02-16T07:04:03.325Z,0.32
2023-02-16T07:05:03.791Z,0
2023-02-16T07:06:01.757Z,0
2023-02-16T07:07:02.217Z,0
2023-02-16T07:08:01.670Z,0
2023-02-16T07:09:03.851Z,0
2023-02-16T07:10:01.569Z,0
2023-02-16T07:11:02.039Z,0
2023-02-16T07:12:01.552Z,0
2023-02-16T07:13:02.084Z,0
2023-02-16T07:14:03.146Z,0
2023-02-16T07:15:01.961Z,0
2023-02-16T07:16:01.510Z,0
2023-02-16T07:17:01.872Z,0
2023-02-16T07:18:03.125Z,0.08
2023-02-16T07:19:01.881Z,0.16
2023-02-16T07:20:02.993Z,0.48
2023-02-16T07:21:02.288Z,0.08
2023-02-16T07:22:02.288Z,0
2023-02-16T07:23:01.866Z,1.36
2023-02-16T07:24:03.951Z,0.96
2023-02-16T07:25:03.391Z,0.24
2023-02-16T07:26:03.869Z,0.88
2023-02-16T07:27:01.719Z,1.36
2023-02-16T07:28:02.143Z,2.08
2023-02-16T07:29:01.638Z,1.76
2023-02-16T07:30:02.185Z,1.28
2023-02-16T07:31:01.620Z,2.24
2023-02-16T07:32:02.276Z,1.36
2023-02-16T07:33:01.581Z,1.12
2023-02-16T07:34:01.968Z,1.92
2023-02-16T07:35:01.478Z,1.52
2023-02-16T07:36:01.953Z,2.4
2023-02-16T07:37:01.395Z,1.52
2023-02-16T07:38:01.899Z,1.76
2023-02-16T07:39:03.070Z,2.24
2023-02-16T07:40:01.873Z,1.52
2023-02-16T07:41:01.458Z,1.68
2023-02-16T07:42:03.538Z,1.92
2023-02-16T07:44:03.470Z,2.32
2023-02-16T07:45:02.279Z,0.88
2023-02-16T07:46:01.751Z,2.16
2023-02-16T07:47:03.885Z,1.92
2023-02-16T07:48:01.723Z,0.56
2023-02-16T07:49:02.216Z,1.12
2023-02-16T07:50:03.315Z,1.44
2023-02-16T07:51:02.505Z,0.56
2023-02-16T07:52:01.632Z,0.88
2023-02-16T07:53:02.125Z,0.08
2023-02-16T07:54:03.263Z,0.56
2023-02-16T07:55:02.046Z,0
2023-02-16T07:56:01.548Z,0.32
2023-02-16T07:57:02.037Z,0.08
2023-02-16T07:58:01.481Z,0
2023-02-16T07:59:01.954Z,0.24
2023-02-16T08:00:03.160Z,0
2023-02-16T08:01:02.414Z,0
2023-02-16T08:02:03.200Z,0.48
2023-02-16T08:03:02.094Z,0.88
2023-02-16T08:04:01.419Z,0.4
2023-02-16T08:05:01.863Z,0
2023-02-16T08:06:02.998Z,0.16
2023-02-16T08:07:01.784Z,0.4
2023-02-16T08:09:01.830Z,1.04
2023-02-16T08:10:02.305Z,0.48
2023-02-16T08:11:01.732Z,0.4
2023-02-16T08:12:02.200Z,0.88
2023-02-16T08:13:01.721Z,0.32
2023-02-16T08:14:02.223Z,0.08
2023-02-16T08:15:01.642Z,0
2023-02-16T08:16:02.431Z,0.48
2023-02-16T08:17:01.743Z,0.4
2023-02-16T08:18:02.150Z,2
2023-02-16T08:19:01.578Z,0.64
2023-02-16T08:20:02.047Z,0.56
2023-02-16T08:21:04.539Z,1.2
2023-02-16T08:22:02.040Z,0
2023-02-16T08:23:01.481Z,0.96
2023-02-16T08:24:03.676Z,1.36
2023-02-16T08:25:01.501Z,0.56
2023-02-16T08:26:02.390Z,0.32
2023-02-16T08:27:03.078Z,0.4
2023-02-16T08:28:01.884Z,1.68
2023-02-16T08:29:01.403Z,0
2023-02-16T08:30:01.962Z,0.72
2023-02-16T08:31:03.041Z,0.96
2023-02-16T08:32:01.967Z,0.96
2023-02-16T08:34:03.480Z,2.72
2023-02-16T08:35:02.297Z,2.4
2023-02-16T08:36:03.831Z,2.16
2023-02-16T08:37:02.285Z,1.92
2023-02-16T08:38:01.728Z,2.32
2023-02-16T08:39:02.205Z,2.72
2023-02-16T08:40:03.322Z,2
2023-02-16T08:41:02.137Z,2
2023-02-16T08:42:03.322Z,1.84
2023-02-16T08:43:02.135Z,2.24
2023-02-16T08:44:03.269Z,1.68
2023-02-16T08:45:03.740Z,1.28
2023-02-16T08:46:01.713Z,1.52
2023-02-16T08:47:02.037Z,1.28
2023-02-16T08:48:01.478Z,1.04
2023-02-16T08:49:01.954Z,2.16
2023-02-16T08:50:01.481Z,0.8
2023-02-16T08:51:01.974Z,0.72
2023-02-16T08:52:01.524Z,0.4
2023-02-16T08:53:01.963Z,0
2023-02-16T08:54:05.631Z,0.16
2023-02-16T08:55:03.545Z,0.16
2023-02-16T08:56:01.349Z,0.24
2023-02-16T08:57:03.599Z,0.32
2023-02-16T08:59:01.790Z,1.28
2023-02-16T09:00:02.285Z,0.64
2023-02-16T09:01:03.458Z,0.8
2023-02-16T09:02:02.361Z,1.76
2023-02-16T09:03:01.717Z,0.16
2023-02-16T09:04:02.204Z,1.04
2023-02-16T09:05:01.668Z,1.04
2023-02-16T09:06:04.288Z,0.32
2023-02-16T09:07:01.725Z,1.12
2023-02-16T09:08:02.199Z,1.12
2023-02-16T09:09:01.654Z,0.56
2023-02-16T09:10:03.807Z,0
2023-02-16T09:11:01.766Z,0
2023-02-16T09:12:03.709Z,0.48
2023-02-16T09:13:01.593Z,1.52
2023-02-16T09:14:02.044Z,1.12
2023-02-16T09:15:01.578Z,1.92
2023-02-16T09:16:03.969Z,2.4
2023-02-16T09:17:01.582Z,3.28
2023-02-16T09:18:03.638Z,1.12
2023-02-16T09:19:03.081Z,2.72
2023-02-16T09:20:03.554Z,3.76
2023-02-16T09:21:01.403Z,2.88
2023-02-16T09:22:01.917Z,2.56
2023-02-16T09:23:01.363Z,2.08
2023-02-16T09:24:03.544Z,2.4
2023-02-16T09:25:02.307Z,1.6
2023-02-16T09:26:02.042Z,4.24
2023-02-16T09:27:02.278Z,1.6
2023-02-16T09:28:01.723Z,2.96
2023-02-16T09:29:02.302Z,2.08
2023-02-16T09:30:03.376Z,3.92
2023-02-16T09:31:02.173Z,3.84
2023-02-16T09:32:01.726Z,4.24
2023-02-16T09:33:02.134Z,3.84
2023-02-16T09:34:01.560Z,3.92
2023-02-16T09:35:02.034Z,0.88
2023-02-16T09:36:01.676Z,1.12
2023-02-16T09:37:02.048Z,0.88
2023-02-16T09:38:03.154Z,2.48
2023-02-16T09:39:01.971Z,2.48
2023-02-16T09:40:01.389Z,2.32
2023-02-16T09:41:01.887Z,1.92
2023-02-16T09:42:01.406Z,1.44
2023-02-16T09:43:01.876Z,2.4
2023-02-16T09:44:01.310Z,3.2
2023-02-16T09:45:01.798Z,3.12
2023-02-16T09:46:02.617Z,2.4
2023-02-16T09:47:01.812Z,2.8
2023-02-16T09:48:02.311Z,3.36
2023-02-16T09:49:01.749Z,2.88
2023-02-16T09:50:02.214Z,2.56
2023-02-16T09:51:01.711Z,2
2023-02-16T09:52:02.186Z,1.12
2023-02-16T09:53:03.312Z,2.96
2023-02-16T09:54:02.136Z,2.48
2023-02-16T09:55:01.663Z,2.72
2023-02-16T09:56:02.609Z,1.52
2023-02-16T09:57:01.600Z,1.76
2023-02-16T09:58:02.050Z,1.76
2023-02-16T09:59:01.582Z,3.76
2023-02-16T10:00:02.070Z,2.24
2023-02-16T10:01:01.550Z,0.72
2023-02-16T10:02:01.969Z,3.04
2023-02-16T10:03:01.491Z,3.36
2023-02-16T10:04:01.981Z,2.4
2023-02-16T10:05:01.391Z,4.16
2023-02-16T10:06:03.839Z,4.32
2023-02-16T10:07:01.324Z,4.08
2023-02-16T10:08:01.828Z,2.24
2023-02-16T10:10:03.520Z,4.96
2023-02-16T10:11:02.451Z,3.04
2023-02-16T10:12:01.731Z,2.72
2023-02-16T10:13:02.196Z,2.48
2023-02-16T10:14:03.340Z,2
2023-02-16T10:15:02.212Z,3.12
2023-02-16T10:16:01.698Z,1.2
2023-02-16T10:17:03.791Z,2.24
2023-02-16T10:18:01.629Z,3.12
2023-02-16T10:19:02.113Z,2.72
2023-02-16T10:20:01.572Z,2.96
2023-02-16T10:21:04.114Z,0.96
2023-02-16T10:22:01.559Z,3.12
2023-02-16T10:23:02.061Z,1.6
2023-02-16T10:24:01.508Z,3.52
2023-02-16T10:25:01.995Z,1.84
2023-02-16T10:26:01.493Z,3.36
2023-02-16T10:27:01.966Z,2.16
2023-02-16T10:28:01.396Z,2.32
2023-02-16T10:29:01.876Z,1.76
2023-02-16T10:30:01.461Z,2.8
2023-02-16T10:31:02.393Z,0.8
2023-02-16T10:32:03.145Z,2.88
2023-02-16T10:33:01.791Z,2.24
2023-02-16T10:34:02.280Z,1.28
2023-02-16T10:35:01.814Z,3.04
2023-02-16T10:36:02.303Z,1.04
2023-02-16T10:37:01.764Z,2.48
2023-02-16T10:38:02.205Z,1.52
2023-02-16T10:39:03.405Z,2.08
2023-02-16T10:40:02.195Z,1.92
2023-02-16T10:41:01.775Z,2.4
2023-02-16T10:42:03.818Z,1.76
2023-02-16T10:43:01.643Z,2.16
2023-02-16T10:44:02.120Z,2
2023-02-16T10:45:03.232Z,2.08
2023-02-16T10:46:03.827Z,2.48
2023-02-16T10:47:01.561Z,1.76
2023-02-16T10:48:02.066Z,4.8
2023-02-16T10:49:01.552Z,3.12
2023-02-16T10:50:02.038Z,3.76
2023-02-16T10:51:01.742Z,4.48
2023-02-16T10:52:01.952Z,4.88
2023-02-16T10:53:01.472Z,3.68
2023-02-16T10:54:01.992Z,14.88
2023-02-16T10:55:03.106Z,1.68
2023-02-16T10:56:01.927Z,5.76
2023-02-16T10:57:01.427Z,3.44
2023-02-16T10:58:01.896Z,3.68
2023-02-16T10:59:03.001Z,2.56
2023-02-16T11:00:03.484Z,1.04
2023-02-16T11:01:02.634Z,1.6
2023-02-16T11:02:01.722Z,3.36
2023-02-16T11:03:02.223Z,5.36
2023-02-16T11:04:01.796Z,3.28
2023-02-16T11:05:02.204Z,4.32
2023-02-16T11:06:02.149Z,4.48
2023-02-16T11:07:02.116Z,3.68
2023-02-16T11:08:01.727Z,2.96
2023-02-16T11:09:02.130Z,4.96
2023-02-16T11:10:01.593Z,4.16
2023-02-16T11:11:03.923Z,3.04
2023-02-16T11:12:03.246Z,2
2023-02-16T11:13:02.068Z,1.92
2023-02-16T11:14:03.177Z,3.04
2023-02-16T11:15:01.956Z,1.68
2023-02-16T11:16:01.539Z,1.2
2023-02-16T11:17:01.964Z,4.8
2023-02-16T11:18:03.109Z,4.4
2023-02-16T11:19:01.876Z,3.92
2023-02-16T11:20:03.001Z,3.92
2023-02-16T11:21:03.947Z,3.36
2023-02-16T11:22:03.961Z,4.08
2023-02-16T11:23:01.804Z,3.44
2023-02-16T11:24:02.335Z,4.72
2023-02-16T11:25:01.733Z,4.32
2023-02-16T11:26:02.205Z,5.44
2023-02-16T11:27:01.724Z,3.6
2023-02-16T11:28:02.210Z,4.72
2023-02-16T11:29:01.662Z,3.92
2023-02-16T11:30:03.886Z,4.56
2023-02-16T11:31:03.676Z,2.88
2023-02-16T11:32:02.212Z,4.08
2023-02-16T11:33:01.558Z,4.72
2023-02-16T11:34:03.822Z,3.36
2023-02-16T11:35:03.200Z,3.52
2023-02-16T11:36:01.968Z,3.2
2023-02-16T11:37:01.485Z,2.16
2023-02-16T11:38:01.951Z,2.08
2023-02-16T11:39:01.423Z,4.08
2023-02-16T11:40:01.873Z,3.68
2023-02-16T11:41:01.436Z,2
2023-02-16T11:42:01.883Z,5.28
2023-02-16T11:43:01.335Z,4.16
2023-02-16T11:44:01.823Z,3.36
2023-02-16T11:45:03.958Z,4.56
2023-02-16T11:46:01.797Z,4.56
2023-02-16T11:47:03.877Z,5.36
2023-02-16T11:48:01.756Z,5.52
2023-02-16T11:49:02.195Z,4.72
2023-02-16T11:50:01.631Z,5.76
2023-02-16T11:51:02.403Z,4.96
2023-02-16T11:52:03.304Z,4.56
2023-02-16T11:53:02.117Z,2.8
2023-02-16T11:54:01.559Z,3.68
2023-02-16T11:55:02.091Z,3.92
2023-02-16T11:56:01.837Z,5.2
2023-02-16T11:57:02.070Z,4.88
2023-02-16T11:58:01.471Z,5.52
2023-02-16T11:59:01.956Z,5.6
2023-02-16T12:00:03.151Z,2.72
2023-02-16T12:01:02.190Z,2.32
2023-02-16T12:02:03.110Z,3.68
2023-02-16T12:03:01.956Z,5.84
2023-02-16T12:04:01.499Z,3.36
2023-02-16T12:05:01.926Z,4.8
2023-02-16T12:06:01.441Z,6.24
2023-02-16T12:07:01.875Z,5.44
2023-02-16T12:08:01.381Z,5.84
2023-02-16T12:09:01.836Z,5.6
2023-02-16T12:10:02.304Z,3.44
2023-02-16T12:11:03.824Z,1.76
2023-02-16T12:12:03.875Z,2.24
2023-02-16T12:13:01.737Z,3.44
2023-02-16T12:14:02.206Z,1.6
2023-02-16T12:15:01.663Z,3.52
2023-02-16T12:16:02.438Z,4.4
2023-02-16T12:17:01.570Z,1.44
2023-02-16T12:18:02.074Z,2.08
2023-02-16T12:19:01.581Z,3.68
2023-02-16T12:20:03.725Z,4.4
2023-02-16T12:21:03.151Z,4.16
2023-02-16T12:22:03.628Z,6.48
2023-02-16T12:23:03.088Z,5.04
2023-02-16T12:24:01.967Z,4.72
2023-02-16T12:25:01.417Z,5.36
2023-02-16T12:26:02.237Z,5.12
2023-02-16T12:27:03.001Z,1.04
2023-02-16T12:28:01.809Z,1.92
2023-02-16T12:29:02.277Z,3.12
2023-02-16T12:30:01.866Z,2.72
2023-02-16T12:31:02.340Z,2.24
2023-02-16T12:32:01.795Z,3.12
2023-02-16T12:33:02.206Z,3.04
2023-02-16T12:34:01.739Z,4.8
2023-02-16T12:35:02.235Z,1.44
2023-02-16T12:36:01.785Z,2.72
2023-02-16T12:37:02.138Z,1.92
2023-02-16T12:38:01.639Z,1.92
2023-02-16T12:39:02.120Z,1.28
2023-02-16T12:40:03.249Z,1.68
2023-02-16T12:41:02.034Z,2.96
2023-02-16T12:42:01.483Z,2.56
2023-02-16T12:43:02.033Z,2.64
2023-02-16T12:44:01.486Z,6.24
2023-02-16T12:45:03.655Z,1.04
2023-02-16T12:46:03.332Z,2.08
2023-02-16T12:47:03.651Z,3.36
2023-02-16T12:48:01.397Z,4.56
2023-02-16T12:49:01.903Z,3.92
2023-02-16T12:50:01.397Z,2.56
2023-02-16T12:51:01.790Z,1.44
2023-02-16T12:53:03.470Z,3.2
2023-02-16T12:54:02.296Z,2.32
2023-02-16T12:55:01.717Z,1.68
2023-02-16T12:56:02.514Z,5.2
2023-02-16T12:57:01.746Z,2.48
2023-02-16T12:58:02.198Z,2.64
2023-02-16T12:59:01.670Z,4.88
2023-02-16T13:00:03.788Z,2.64
2023-02-16T13:01:01.735Z,5.68
2023-02-16T13:02:02.134Z,4.08
2023-02-16T13:03:05.039Z,3.28
2023-02-16T13:04:01.864Z,2.4
2023-02-16T13:05:03.102Z,3.84
2023-02-16T13:06:01.900Z,3.2
2023-02-16T13:07:03.016Z,3.04
2023-02-16T13:08:01.791Z,4.32
2023-02-16T13:09:02.279Z,3.36
2023-02-16T13:10:01.787Z,5.76
2023-02-16T13:11:02.637Z,3.2
2023-02-16T13:12:02.499Z,6.24
2023-02-16T13:13:02.245Z,4.8
2023-02-16T13:14:03.319Z,3.68
2023-02-16T13:15:02.129Z,2.96
2023-02-16T13:16:01.702Z,2.48
2023-02-16T13:17:02.209Z,4.16
2023-02-16T13:18:01.645Z,3.84
2023-02-16T13:19:02.133Z,3.68
2023-02-16T13:20:04.637Z,3.12
2023-02-16T13:21:02.033Z,3.04
2023-02-16T13:22:01.494Z,2.48
2023-02-16T13:23:02.009Z,1.6
2023-02-16T13:24:03.085Z,5.92
2023-02-16T13:25:02.020Z,5.2
2023-02-16T13:26:01.713Z,2.4
2023-02-16T13:27:01.890Z,2.32
2023-02-16T13:28:01.433Z,3.84
2023-02-16T13:29:02.065Z,2.64
2023-02-16T13:30:01.423Z,4
2023-02-16T13:31:01.889Z,2.24
2023-02-16T13:32:02.314Z,3.92
2023-02-16T13:33:03.410Z,4.88
2023-02-16T13:34:02.204Z,3.04
2023-02-16T13:35:01.746Z,3.2
2023-02-16T13:36:04.114Z,3.84
2023-02-16T13:37:01.635Z,1.04
2023-02-16T13:38:03.790Z,4.08